Wilton, ND (58579)

7:30 PM CDT on May 22, 2017 (GMT -0500)
Dakota Adventist Academy | | Change Station

Elev 1873 ft 46.98 °N, 100.89 °W | Updated 4 seconds ago

Mostly Cloudy
Mostly Cloudy
59.9 °F
Feels Like 59.9 °F
N
0.4
Wind Variable Wind from ENE
Gusts 2.5 mph

Today
High -- | Low -- °F
--% Chance of Precip.
Yesterday
High -- | Low -- °F
Precip. -- in
Pressure 30.01 in
Visibility 10.0 miles
Clouds Mostly Cloudy 6000 ft
Mostly Cloudy 7000 ft
Mostly Cloudy 8500 ft
Dew Point 38 °F
Humidity 44%
Rainfall 0.00 in
Snow Depth Not available.
5:59 AM 9:21 PM
Waning Crescent, 11% visible
METAR KBIS 222352Z 33010G20KT 10SM -RA BKN060 BKN070 BKN085 15/05 A2999 RMK AO2 PK WND 33027/2330 RAB22 SLP161 P0000 60000 T01500050 10178 20139 56001
Pressure 30.01 in
Visibility 10.0 miles
Clouds Mostly Cloudy 6000 ft
Mostly Cloudy 7000 ft
Mostly Cloudy 8500 ft
Dew Point 38 °F
Humidity 44%
Rainfall 0.00 in
Snow Depth Not available.
5:59 AM 9:21 PM
Waning Crescent, 11% visible
METAR KBIS 222352Z 33010G20KT 10SM -RA BKN060 BKN070 BKN085 15/05 A2999 RMK AO2 PK WND 33027/2330 RAB22 SLP161 P0000 60000 T01500050 10178 20139 56001

Get Severe Weather Alerts

Thanks for signing up!

Be on the lookout for a verification email in your inbox.

You'll start receiving the daily forecast at 6 AM.

×

10-Day Weather Forecast

Almanac

Astronomy

May. 22, 2017 Rise Set
Actual Time
Civil Twilight
Nautical Twilight
Astronomical Twilight
Moon
Length of Visible Light
Length of Day
Tomorrow will be .
, % of the Moon is Illuminated

Today's Extremes

State Highs State Lows

Community

WunderPhotos

Category 6

Welcome to Category 6. This is the collective home for Weather Underground's featured writeups by Dr. Jeff Masters (right), Bob Henson (left), Chris Burt, and other regular contributors.

Nearby

Air Quality

  Air Quality AQ Index Pollutant
Not available.

Snow Depth

Station Depth Elevation

Earthquake Activity

City Distance Mag. Time & Date
Minimum magnitude displayed is 2.5.

Coastal Water Temperatures

Place Temperature

Stations

Nearby Weather Stations

Station Location Temp. Windchill Dew Point Humidity Wind Precip. Elev Updated Type
                   

Watches & Warnings

There are currently no watches in effect.